Date,TemperatureHighF,TemperatureAvgF,TemperatureLowF,DewpointHighF,DewpointAvgF,DewpointLowF,HumidityHigh,HumidityAvg,HumidityLow,PressureMaxIn,PressureMinIn,WindSpeedMaxMPH,WindSpeedAvgMPH,GustSpeedMaxMPH,PrecipitationSumIn
2013-8-1,86.4,72.7,60.3,63.1,58.7,54.4,82,64,41,30.09,29.98,5,1,5,0.00
2013-8-2,93.6,78.0,62.5,65.4,59.0,55.3,80,56,31,30.01,29.91,7,1,7,0.00
2013-8-3,98.3,81.9,65.9,63.5,58.2,51.9,70,48,22,30.02,29.91,7,1,7,0.00
2013-8-4,79.4,76.2,74.2,64.5,63.5,62.8,71,65,58,30.12,30.01,5,1,5,0.00
2013-8-5,84.6,76.4,63.7,67.2,64.2,59.9,88,67,46,30.09,29.96,8,2,8,0.00
2013-8-6,69.5,66.3,64.6,62.5,60.9,59.3,86,82,79,29.97,29.95,2,0,2,0.00
2013-8-7,85.9,81.1,74.2,70.2,67.4,63.0,76,64,54,29.86,29.76,10,2,10,0.00
2013-8-8,83.3,75.9,67.5,70.4,65.3,58.9,78,70,60,30.00,29.77,7,1,7,0.00
2013-8-9,72.9,68.2,65.0,63.6,60.0,58.3,80,75,65,30.07,29.99,8,2,8,0.00
2013-8-21,71.5,62.9,51.1,56.4,51.3,46.3,87,67,49,30.28,30.17,6,1,6,0.00
2013-8-22,74.0,61.5,50.9,56.1,50.5,45.2,84,69,44,30.17,30.05,6,1,6,0.00
2013-8-23,72.4,62.5,52.6,56.5,51.4,46.6,83,68,50,30.07,29.99,10,2,10,0.00
2013-8-24,76.7,65.1,55.1,57.3,53.4,48.7,83,67,47,30.01,29.84,9,2,9,0.00
2013-8-25,63.4,60.0,57.6,57.1,54.2,51.7,89,81,72,29.86,29.80,9,2,9,0.00
2013-8-26,63.0,58.8,57.2,58.8,55.4,53.4,92,88,82,29.95,29.83,9,2,9,0.00
2013-8-27,62.5,58.3,55.6,56.0,53.7,52.1,89,85,76,29.94,29.89,8,1,8,0.00
2013-8-28,65.2,59.9,55.8,58.3,55.3,52.2,91,85,73,30.04,29.88,4,0,4,0.00
2013-8-29,76.9,62.1,52.2,59.5,52.9,48.4,89,74,45,30.12,30.04,5,1,5,0.00
2013-8-30,77.2,63.2,51.7,58.6,52.6,46.6,86,70,44,30.12,30.03,5,1,6,0.00
2013-8-31,59.0,57.8,56.9,51.9,50.9,50.2,81,78,75,30.05,30.03,3,0,3,0.00